createdAt,value
2018-11-25T00:02:14.888Z,2.46
2018-11-25T00:04:47.478Z,2.46
2018-11-25T00:07:20.162Z,2.39
2018-11-25T00:09:52.803Z,2.49
2018-11-25T00:12:25.454Z,2.42
2018-11-25T00:14:58.068Z,2.38
2018-11-25T00:17:30.679Z,2.43
2018-11-25T00:20:04.729Z,2.35
2018-11-25T00:22:37.320Z,2.50
2018-11-25T00:25:12.176Z,2.38
2018-11-25T00:27:45.336Z,2.32
2018-11-25T00:30:18.009Z,2.29
2018-11-25T00:32:50.603Z,2.37
2018-11-25T00:35:23.354Z,2.45
2018-11-25T00:37:55.949Z,2.43
2018-11-25T00:40:28.551Z,2.40
2018-11-25T00:43:01.105Z,2.49
2018-11-25T00:45:33.709Z,2.56
2018-11-25T00:48:06.313Z,2.49
2018-11-25T00:50:38.930Z,2.49
2018-11-25T00:53:11.562Z,2.51
2018-11-25T00:55:44.122Z,2.51
2018-11-25T00:58:16.671Z,2.56
2018-11-25T01:00:49.288Z,2.62
2018-11-25T01:03:21.904Z,2.60
2018-11-25T01:05:54.612Z,2.59
2018-11-25T01:08:27.203Z,2.57
2018-11-25T01:10:59.813Z,2.60
2018-11-25T01:13:32.428Z,2.76
2018-11-25T01:16:05.324Z,2.63
2018-11-25T01:18:37.884Z,2.59
2018-11-25T01:21:10.451Z,2.51
2018-11-25T01:23:43.076Z,2.50
2018-11-25T01:26:15.650Z,2.50
2018-11-25T01:28:48.201Z,2.43
2018-11-25T01:31:20.812Z,2.55
2018-11-25T01:33:53.471Z,2.58
2018-11-25T01:36:26.071Z,2.51
2018-11-25T01:38:58.637Z,2.51
2018-11-25T01:41:31.235Z,2.50
2018-11-25T01:44:03.917Z,2.57
2018-11-25T01:46:36.512Z,2.48
2018-11-25T01:49:09.074Z,2.48
2018-11-25T01:51:41.677Z,2.47
2018-11-25T01:54:14.257Z,2.42
2018-11-25T01:59:34.237Z,2.47
2018-11-25T02:02:06.828Z,2.48
2018-11-25T02:04:39.389Z,2.50
2018-11-25T02:07:12.005Z,2.42
2018-11-25T02:09:44.642Z,2.46
2018-11-25T02:12:17.300Z,2.44
2018-11-25T02:14:49.860Z,2.38
2018-11-25T02:17:22.472Z,2.40
2018-11-25T02:19:55.099Z,2.40
2018-11-25T02:22:29.037Z,2.36
2018-11-25T02:25:00.295Z,2.36
2018-11-25T02:27:32.981Z,2.32
2018-11-25T02:30:08.217Z,2.31
2018-11-25T02:32:40.856Z,2.30
2018-11-25T02:35:14.420Z,2.34
2018-11-25T02:37:47.011Z,2.32
2018-11-25T02:40:19.557Z,2.31
2018-11-25T02:42:52.935Z,2.31
2018-11-25T02:45:25.532Z,2.23
2018-11-25T02:47:58.088Z,2.26
2018-11-25T02:50:30.922Z,2.22
2018-11-25T02:53:05.893Z,2.27
2018-11-25T02:55:38.514Z,2.31
2018-11-25T02:58:11.113Z,2.23
2018-11-25T03:00:43.729Z,2.19
2018-11-25T03:03:16.372Z,2.18
2018-11-25T03:05:48.966Z,2.14
2018-11-25T03:08:21.674Z,2.04
2018-11-25T03:10:54.693Z,1.98
2018-11-25T03:13:27.260Z,2.08
2018-11-25T03:15:59.834Z,2.04
2018-11-25T03:18:32.370Z,2.00
2018-11-25T03:21:06.015Z,1.99
2018-11-25T03:23:38.566Z,1.94
2018-11-25T03:26:11.150Z,1.85
2018-11-25T03:28:43.771Z,1.84
2018-11-25T03:31:16.380Z,1.95
2018-11-25T03:33:49.001Z,1.96
2018-11-25T03:36:21.666Z,2.03
2018-11-25T03:38:54.337Z,2.02
2018-11-25T03:41:27.081Z,2.03
2018-11-25T03:44:00.641Z,1.99
2018-11-25T03:46:33.278Z,2.04
2018-11-25T03:49:05.988Z,2.03
2018-11-25T03:51:38.542Z,1.92
2018-11-25T03:54:11.094Z,1.86
2018-11-25T03:56:44.664Z,1.83
2018-11-25T03:59:17.237Z,1.92
2018-11-25T04:01:49.845Z,1.97
2018-11-25T04:04:22.442Z,1.97
2018-11-25T04:06:55.040Z,1.92
2018-11-25T04:09:27.670Z,1.98
2018-11-25T04:12:00.375Z,2.03
2018-11-25T04:14:32.964Z,1.99
2018-11-25T04:17:05.599Z,1.97
2018-11-25T04:19:38.224Z,1.96
2018-11-25T04:22:10.824Z,1.92
2018-11-25T04:24:43.456Z,1.91
2018-11-25T04:27:16.076Z,2.06
2018-11-25T04:29:48.707Z,2.10
2018-11-25T04:32:21.330Z,2.04
2018-11-25T04:34:53.940Z,2.04
2018-11-25T04:37:26.501Z,2.06
2018-11-25T04:39:59.022Z,2.03
2018-11-25T04:42:31.646Z,2.04
2018-11-25T04:45:04.718Z,2.01
2018-11-25T04:47:37.338Z,1.96
2018-11-25T04:50:13.286Z,1.95
2018-11-25T04:52:45.957Z,1.94
2018-11-25T04:55:18.542Z,1.90
2018-11-25T04:57:51.859Z,1.84
2018-11-25T05:00:24.538Z,1.81
2018-11-25T05:02:57.188Z,1.83
2018-11-25T05:05:29.746Z,1.88
2018-11-25T05:08:02.349Z,1.79
2018-11-25T05:10:34.960Z,1.87
2018-11-25T05:13:07.583Z,1.79
2018-11-25T05:15:40.216Z,1.72
2018-11-25T05:18:12.825Z,1.66
2018-11-25T16:26:19.570Z,2.72
2018-11-25T16:28:55.059Z,2.74
2018-11-25T16:31:28.626Z,2.83
2018-11-25T16:34:01.353Z,2.77
2018-11-25T16:36:34.033Z,2.80
2018-11-25T16:39:08.670Z,2.80
2018-11-25T16:41:41.328Z,2.81
2018-11-25T16:44:13.983Z,2.85
2018-11-25T16:46:46.664Z,2.81
2018-11-25T16:49:19.351Z,2.83
2018-11-25T16:51:52.041Z,2.89
2018-11-25T16:54:24.700Z,2.94
2018-11-25T16:56:57.385Z,2.79
2018-11-25T16:59:30.104Z,2.92
2018-11-25T17:02:02.747Z,3.03
2018-11-25T17:04:35.440Z,3.00
2018-11-25T17:07:08.186Z,2.98
2018-11-25T17:09:40.936Z,2.99
2018-11-25T17:12:13.712Z,3.07
2018-11-25T17:14:46.471Z,2.98
2018-11-25T17:17:19.107Z,3.06
2018-11-25T17:19:51.823Z,3.03
2018-11-25T17:22:24.521Z,2.94
2018-11-25T17:27:44.062Z,3.06
2018-11-25T17:30:17.968Z,3.01
2018-11-25T17:32:50.687Z,3.11
2018-11-25T17:35:26.618Z,3.09
2018-11-25T17:37:59.298Z,3.06
2018-11-25T17:40:32.057Z,3.15
2018-11-25T17:43:05.385Z,3.15
2018-11-25T17:45:38.086Z,3.07
2018-11-25T17:48:10.754Z,3.08
2018-11-25T17:50:43.479Z,3.04
2018-11-25T17:53:20.704Z,3.11
2018-11-25T17:55:48.929Z,3.14
2018-11-25T17:58:21.587Z,3.14
2018-11-25T18:00:59.037Z,3.16
2018-11-25T18:03:33.102Z,3.14
2018-11-25T18:06:06.145Z,3.16
2018-11-25T18:08:38.881Z,3.19
2018-11-25T18:11:11.571Z,3.06
2018-11-25T18:13:44.290Z,3.07
2018-11-25T18:16:17.033Z,3.03
2018-11-25T18:18:52.575Z,3.16
2018-11-25T18:21:26.179Z,3.22
2018-11-25T18:23:58.894Z,3.18
2018-11-25T18:26:31.714Z,3.20
2018-11-25T18:29:04.869Z,3.24
2018-11-25T18:31:37.609Z,3.26
2018-11-25T18:34:10.212Z,3.19
2018-11-25T18:36:43.478Z,3.16
2018-11-25T18:39:16.156Z,3.08
2018-11-25T18:41:49.275Z,3.21
2018-11-25T18:44:21.953Z,3.21
2018-11-25T18:46:54.599Z,3.14
2018-11-25T18:49:27.335Z,3.17
2018-11-25T18:52:05.096Z,3.14
2018-11-25T18:54:32.862Z,3.14
2018-11-25T18:57:05.530Z,3.10
2018-11-25T18:59:38.261Z,3.08
2018-11-25T19:02:14.667Z,3.07
2018-11-25T19:04:47.342Z,3.07
2018-11-25T19:07:20.009Z,3.10
2018-11-25T19:09:52.698Z,3.12
2018-11-25T19:12:25.427Z,3.12
2018-11-25T19:14:58.502Z,3.08
2018-11-25T19:17:31.395Z,3.07
2018-11-25T19:20:08.928Z,3.10
2018-11-25T19:22:41.937Z,3.09
2018-11-25T19:25:15.927Z,3.02
2018-11-25T19:27:48.801Z,3.02
2018-11-25T19:30:26.332Z,3.14
2018-11-25T19:32:54.296Z,3.03
2018-11-25T19:35:27.011Z,2.99
2018-11-25T19:37:59.706Z,3.12
2018-11-25T19:40:32.363Z,3.19
2018-11-25T19:43:06.450Z,3.14
2018-11-25T19:45:39.114Z,3.24
2018-11-25T19:48:11.760Z,3.23
2018-11-25T19:50:44.507Z,3.24
2018-11-25T19:53:17.244Z,3.19
2018-11-25T19:55:49.953Z,3.22
2018-11-25T19:58:22.692Z,3.26
2018-11-25T20:00:55.477Z,3.26
2018-11-25T20:03:28.229Z,3.23
2018-11-25T20:06:00.887Z,3.31
2018-11-25T20:08:33.675Z,3.27
2018-11-25T20:11:06.489Z,3.24
2018-11-25T20:13:39.305Z,3.27
2018-11-25T20:16:18.136Z,3.31
2018-11-25T20:18:50.955Z,3.28
2018-11-25T20:21:29.115Z,3.36
2018-11-25T20:24:01.704Z,3.29
2018-11-25T20:26:34.427Z,3.37
2018-11-25T20:29:07.250Z,3.29
2018-11-25T20:33:09.408Z,3.28
2018-11-25T20:35:42.072Z,3.23
2018-11-25T20:38:20.391Z,3.21
2018-11-25T20:40:53.048Z,3.29
2018-11-25T20:43:25.733Z,3.30
2018-11-25T20:46:04.045Z,3.27
2018-11-25T20:48:36.727Z,3.21
2018-11-25T20:51:09.448Z,3.25
2018-11-25T20:53:47.855Z,3.34
2018-11-25T20:56:20.440Z,3.36
2018-11-25T20:58:53.175Z,3.33
2018-11-25T21:01:26.731Z,3.40
2018-11-25T21:03:59.421Z,3.38
2018-11-25T21:06:32.238Z,3.36
2018-11-25T21:09:08.677Z,3.33
2018-11-25T21:11:41.362Z,3.39
2018-11-25T21:14:14.802Z,3.38
2018-11-25T21:16:48.500Z,3.29
2018-11-25T21:19:21.117Z,3.36
2018-11-25T21:21:53.876Z,3.36
2018-11-25T21:24:29.713Z,3.31
2018-11-25T21:27:02.338Z,3.41
2018-11-25T21:29:35.098Z,3.37
2018-11-25T21:32:07.802Z,3.36
2018-11-25T21:34:40.674Z,3.29
2018-11-25T21:37:13.432Z,3.35
2018-11-25T21:39:47.478Z,3.40
2018-11-25T21:42:20.140Z,3.35
2018-11-25T21:44:52.845Z,3.44
2018-11-25T21:47:28.475Z,3.39
2018-11-25T21:50:01.200Z,3.35
2018-11-25T21:52:33.888Z,3.43
2018-11-25T21:55:08.886Z,3.43
2018-11-25T21:57:41.714Z,3.39
2018-11-25T22:00:19.427Z,3.35
2018-11-25T22:02:52.132Z,3.35
2018-11-25T22:05:25.205Z,3.30
2018-11-25T22:07:57.823Z,3.35
2018-11-25T22:10:30.517Z,3.40
2018-11-25T22:13:03.266Z,3.38
2018-11-25T22:15:35.928Z,3.39
2018-11-25T22:18:08.650Z,3.37
2018-11-25T22:20:41.396Z,3.24
2018-11-25T22:23:14.040Z,3.31
2018-11-25T22:25:46.873Z,3.32
2018-11-25T22:28:19.472Z,3.33
2018-11-25T22:30:52.130Z,3.31
2018-11-25T22:33:24.775Z,3.26
2018-11-25T22:35:57.387Z,3.35
2018-11-25T22:38:30.007Z,3.33
2018-11-25T22:41:02.678Z,3.33
2018-11-25T22:43:35.300Z,3.25
2018-11-25T22:46:07.966Z,3.29
2018-11-25T22:48:40.516Z,3.32
2018-11-25T22:51:13.121Z,3.35
2018-11-25T22:53:45.679Z,3.30
2018-11-25T22:56:18.329Z,3.30
2018-11-25T22:58:50.954Z,3.31
2018-11-25T23:01:23.677Z,3.31
2018-11-25T23:04:07.736Z,3.36
2018-11-25T23:06:51.633Z,3.37
2018-11-25T23:09:24.271Z,3.40
2018-11-25T23:11:57.004Z,3.39
2018-11-25T23:14:29.713Z,3.44
2018-11-25T23:17:02.337Z,3.55
2018-11-25T23:19:35.036Z,3.47
2018-11-25T23:22:07.663Z,3.48
2018-11-25T23:24:40.252Z,3.42
2018-11-25T23:27:12.909Z,3.50
2018-11-25T23:29:45.543Z,3.36
2018-11-25T23:32:18.179Z,3.40
2018-11-25T23:34:50.703Z,3.45
2018-11-25T23:37:23.385Z,3.41
2018-11-25T23:39:56.018Z,3.43
2018-11-25T23:42:28.698Z,3.37
2018-11-25T23:45:01.471Z,3.37
2018-11-25T23:47:34.128Z,3.39
2018-11-25T23:50:08.392Z,3.41
2018-11-25T23:52:41.847Z,3.36
2018-11-25T23:55:15.111Z,3.38
2018-11-25T23:57:47.803Z,3.40
